sensor_id;sensor_type;location;lat;lon;timestamp;pressure;altitude;pressure_sealevel;temperature
76007;BMP280;64699;0.000;0.000;2024-01-15T00:01:35;98376.38;;;17.76
76007;BMP280;64699;0.000;0.000;2024-01-15T00:04:00;98373.06;;;17.78
76007;BMP280;64699;0.000;0.000;2024-01-15T00:06:25;98367.56;;;17.78
76007;BMP280;64699;0.000;0.000;2024-01-15T00:08:52;98366.31;;;17.79
76007;BMP280;64699;0.000;0.000;2024-01-15T00:11:37;98359.47;;;17.80
76007;BMP280;64699;0.000;0.000;2024-01-15T00:14:02;98355.31;;;17.79
76007;BMP280;64699;0.000;0.000;2024-01-15T00:16:28;98353.13;;;17.77
76007;BMP280;64699;0.000;0.000;2024-01-15T00:18:53;98348.50;;;17.80
76007;BMP280;64699;0.000;0.000;2024-01-15T00:21:18;98350.50;;;17.79
76007;BMP280;64699;0.000;0.000;2024-01-15T00:23:44;98338.09;;;17.78
76007;BMP280;64699;0.000;0.000;2024-01-15T00:26:09;98340.84;;;17.78
76007;BMP280;64699;0.000;0.000;2024-01-15T00:28:35;98332.59;;;17.78
76007;BMP280;64699;0.000;0.000;2024-01-15T00:31:00;98332.03;;;17.80
76007;BMP280;64699;0.000;0.000;2024-01-15T00:33:26;98329.88;;;17.78
76007;BMP280;64699;0.000;0.000;2024-01-15T00:35:51;98325.78;;;17.79
76007;BMP280;64699;0.000;0.000;2024-01-15T00:38:16;98315.56;;;17.80
76007;BMP280;64699;0.000;0.000;2024-01-15T00:40:42;98319.63;;;17.79
76007;BMP280;64699;0.000;0.000;2024-01-15T00:43:07;98312.66;;;17.78
76007;BMP280;64699;0.000;0.000;2024-01-15T00:45:32;98308.63;;;17.79
76007;BMP280;64699;0.000;0.000;2024-01-15T00:47:57;98309.91;;;17.78
76007;BMP280;64699;0.000;0.000;2024-01-15T00:50:24;98304.56;;;17.80
76007;BMP280;64699;0.000;0.000;2024-01-15T00:52:49;98300.22;;;17.77
76007;BMP280;64699;0.000;0.000;2024-01-15T00:55:15;98287.94;;;17.78
76007;BMP280;64699;0.000;0.000;2024-01-15T00:57:40;98290.09;;;17.79
76007;BMP280;64699;0.000;0.000;2024-01-15T01:00:05;98284.47;;;17.77
76007;BMP280;64699;0.000;0.000;2024-01-15T01:02:31;98282.44;;;17.78
76007;BMP280;64699;0.000;0.000;2024-01-15T01:04:56;98272.75;;;17.77
76007;BMP280;64699;0.000;0.000;2024-01-15T01:07:21;98266.13;;;17.80
76007;BMP280;64699;0.000;0.000;2024-01-15T01:09:47;98259.75;;;17.77
76007;BMP280;64699;0.000;0.000;2024-01-15T01:12:13;98255.13;;;17.80
76007;BMP280;64699;0.000;0.000;2024-01-15T01:14:38;98251.53;;;17.77
76007;BMP280;64699;0.000;0.000;2024-01-15T01:17:03;98246.03;;;17.77
76007;BMP280;64699;0.000;0.000;2024-01-15T01:19:28;98245.31;;;17.77
76007;BMP280;64699;0.000;0.000;2024-01-15T01:21:55;98252.25;;;17.78
76007;BMP280;64699;0.000;0.000;2024-01-15T01:24:20;98245.47;;;17.79
76007;BMP280;64699;0.000;0.000;2024-01-15T01:26:45;98236.22;;;17.74
76007;BMP280;64699;0.000;0.000;2024-01-15T01:29:11;98243.28;;;17.77
76007;BMP280;64699;0.000;0.000;2024-01-15T01:31:41;98239.81;;;17.77
76007;BMP280;64699;0.000;0.000;2024-01-15T01:34:07;98235.50;;;17.74
76007;BMP280;64699;0.000;0.000;2024-01-15T01:36:32;98234.75;;;17.73
76007;BMP280;64699;0.000;0.000;2024-01-15T01:38:57;98236.91;;;17.75
76007;BMP280;64699;0.000;0.000;2024-01-15T01:41:22;98231.56;;;17.77
76007;BMP280;64699;0.000;0.000;2024-01-15T01:43:49;98224.63;;;17.76
76007;BMP280;64699;0.000;0.000;2024-01-15T01:46:14;98220.44;;;17.75
76007;BMP280;64699;0.000;0.000;2024-01-15T01:48:40;98222.50;;;17.74
76007;BMP280;64699;0.000;0.000;2024-01-15T01:51:05;98221.16;;;17.75
76007;BMP280;64699;0.000;0.000;2024-01-15T01:53:31;98223.06;;;17.73
76007;BMP280;64699;0.000;0.000;2024-01-15T01:55:57;98217.56;;;17.73
76007;BMP280;64699;0.000;0.000;2024-01-15T01:58:22;98221.59;;;17.72
76007;BMP280;64699;0.000;0.000;2024-01-15T02:00:47;98214.66;;;17.71
76007;BMP280;64699;0.000;0.000;2024-01-15T02:03:14;98212.06;;;17.73
76007;BMP280;64699;0.000;0.000;2024-01-15T02:05:39;98198.91;;;17.71
76007;BMP280;64699;0.000;0.000;2024-01-15T02:08:05;98198.03;;;17.69
76007;BMP280;64699;0.000;0.000;2024-01-15T02:10:30;98202.25;;;17.70
76007;BMP280;64699;0.000;0.000;2024-01-15T02:12:55;98206.28;;;17.69
76007;BMP280;64699;0.000;0.000;2024-01-15T02:15:20;98196.75;;;17.70
76007;BMP280;64699;0.000;0.000;2024-01-15T02:17:58;98189.81;;;17.69
76007;BMP280;64699;0.000;0.000;2024-01-15T02:20:24;98198.03;;;17.69
76007;BMP280;64699;0.000;0.000;2024-01-15T02:22:49;98189.81;;;17.69
76007;BMP280;64699;0.000;0.000;2024-01-15T02:25:14;98184.16;;;17.67
76007;BMP280;64699;0.000;0.000;2024-01-15T02:27:39;98178.53;;;17.65
76007;BMP280;64699;0.000;0.000;2024-01-15T02:30:05;98173.75;;;17.65
76007;BMP280;64699;0.000;0.000;2024-01-15T02:32:31;98180.69;;;17.66
76007;BMP280;64699;0.000;0.000;2024-01-15T02:34:56;98174.34;;;17.64
76007;BMP280;64699;0.000;0.000;2024-01-15T02:37:22;98175.94;;;17.67
76007;BMP280;64699;0.000;0.000;2024-01-15T02:39:47;98176.50;;;17.65
76007;BMP280;64699;0.000;0.000;2024-01-15T02:42:12;98168.88;;;17.64
76007;BMP280;64699;0.000;0.000;2024-01-15T02:44:37;98160.63;;;17.64
76007;BMP280;64699;0.000;0.000;2024-01-15T02:47:02;98161.34;;;17.64
76007;BMP280;64699;0.000;0.000;2024-01-15T02:49:28;98156.44;;;17.63
76007;BMP280;64699;0.000;0.000;2024-01-15T02:51:53;98160.63;;;17.64
76007;BMP280;64699;0.000;0.000;2024-01-15T02:54:18;98145.47;;;17.63
76007;BMP280;64699;0.000;0.000;2024-01-15T02:56:43;98146.16;;;17.63
76007;BMP280;64699;0.000;0.000;2024-01-15T02:59:08;98135.75;;;17.62
76007;BMP280;64699;0.000;0.000;2024-01-15T03:01:34;98139.09;;;17.60
76007;BMP280;64699;0.000;0.000;2024-01-15T03:03:59;98139.09;;;17.60
76007;BMP280;64699;0.000;0.000;2024-01-15T03:06:24;98132.16;;;17.59
76007;BMP280;64699;0.000;0.000;2024-01-15T03:08:49;98130.13;;;17.60
76007;BMP280;64699;0.000;0.000;2024-01-15T03:11:14;98119.72;;;17.58
76007;BMP280;64699;0.000;0.000;2024-01-15T03:13:40;98110.91;;;17.60
76007;BMP280;64699;0.000;0.000;2024-01-15T03:16:05;98113.50;;;17.58
76007;BMP280;64699;0.000;0.000;2024-01-15T03:18:31;98109.19;;;17.55
76007;BMP280;64699;0.000;0.000;2024-01-15T03:20:56;98095.59;;;17.57
76007;BMP280;64699;0.000;0.000;2024-01-15T03:23:21;98092.72;;;17.55
76007;BMP280;64699;0.000;0.000;2024-01-15T03:25:47;98090.69;;;17.55
76007;BMP280;64699;0.000;0.000;2024-01-15T03:28:12;98084.50;;;17.55
76007;BMP280;64699;0.000;0.000;2024-01-15T03:30:37;98087.25;;;17.55
76007;BMP280;64699;0.000;0.000;2024-01-15T03:33:02;98085.22;;;17.55
76007;BMP280;64699;0.000;0.000;2024-01-15T03:35:28;98081.75;;;17.55
76007;BMP280;64699;0.000;0.000;2024-01-15T03:37:55;98085.75;;;17.54
76007;BMP280;64699;0.000;0.000;2024-01-15T03:40:21;98078.84;;;17.53
76007;BMP280;64699;0.000;0.000;2024-01-15T03:42:46;98071.34;;;17.53
76007;BMP280;64699;0.000;0.000;2024-01-15T03:45:11;98078.84;;;17.53
76007;BMP280;64699;0.000;0.000;2024-01-15T03:47:36;98071.19;;;17.51
76007;BMP280;64699;0.000;0.000;2024-01-15T03:50:01;98071.19;;;17.51
76007;BMP280;64699;0.000;0.000;2024-01-15T03:52:27;98065.00;;;17.51
76007;BMP280;64699;0.000;0.000;2024-01-15T03:54:52;98063.53;;;17.50
76007;BMP280;64699;0.000;0.000;2024-01-15T03:57:17;98064.25;;;17.50
76007;BMP280;64699;0.000;0.000;2024-01-15T03:59:42;98063.53;;;17.50
76007;BMP280;64699;0.000;0.000;2024-01-15T04:02:08;98054.56;;;17.49
76007;BMP280;64699;0.000;0.000;2024-01-15T04:04:33;98051.69;;;17.47
76007;BMP280;64699;0.000;0.000;2024-01-15T04:06:59;98058.47;;;17.46
76007;BMP280;64699;0.000;0.000;2024-01-15T04:09:24;98060.66;;;17.48
76007;BMP280;64699;0.000;0.000;2024-01-15T04:11:49;98052.25;;;17.46
76007;BMP280;64699;0.000;0.000;2024-01-15T04:14:14;98041.28;;;17.46
76007;BMP280;64699;0.000;0.000;2024-01-15T04:16:40;98039.84;;;17.45
76007;BMP280;64699;0.000;0.000;2024-01-15T04:19:05;98035.81;;;17.46
76007;BMP280;64699;0.000;0.000;2024-01-15T04:21:30;98024.81;;;17.46
76007;BMP280;64699;0.000;0.000;2024-01-15T04:23:55;98019.19;;;17.44
76007;BMP280;64699;0.000;0.000;2024-01-15T04:26:20;98017.75;;;17.43
76007;BMP280;64699;0.000;0.000;2024-01-15T04:28:46;98013.69;;;17.44
76007;BMP280;64699;0.000;0.000;2024-01-15T04:31:20;98015.00;;;17.43
76007;BMP280;64699;0.000;0.000;2024-01-15T04:33:45;98008.06;;;17.42
76007;BMP280;64699;0.000;0.000;2024-01-15T04:36:10;97999.84;;;17.42
76007;BMP280;64699;0.000;0.000;2024-01-15T04:38:35;97997.97;;;17.44
76007;BMP280;64699;0.000;0.000;2024-01-15T04:41:01;97984.06;;;17.42
76007;BMP280;64699;0.000;0.000;2024-01-15T04:43:26;97980.75;;;17.44
76007;BMP280;64699;0.000;0.000;2024-01-15T04:45:51;97976.56;;;17.43
76007;BMP280;64699;0.000;0.000;2024-01-15T04:48:17;97973.84;;;17.43
76007;BMP280;64699;0.000;0.000;2024-01-15T04:50:42;97984.50;;;17.48
76007;BMP280;64699;0.000;0.000;2024-01-15T04:53:07;97979.91;;;17.51
76007;BMP280;64699;0.000;0.000;2024-01-15T04:55:32;97970.22;;;17.50
76007;BMP280;64699;0.000;0.000;2024-01-15T04:57:57;97977.28;;;17.53
76007;BMP280;64699;0.000;0.000;2024-01-15T05:00:23;97977.47;;;17.55
76007;BMP280;64699;0.000;0.000;2024-01-15T05:02:48;97970.66;;;17.56
76007;BMP280;64699;0.000;0.000;2024-01-15T05:05:13;97962.56;;;17.58
76007;BMP280;64699;0.000;0.000;2024-01-15T05:07:38;97961.38;;;17.61
76007;BMP280;64699;0.000;0.000;2024-01-15T05:10:03;97961.53;;;17.63
76007;BMP280;64699;0.000;0.000;2024-01-15T05:12:29;97949.25;;;17.64
76007;BMP280;64699;0.000;0.000;2024-01-15T05:14:54;97956.19;;;17.65
76007;BMP280;64699;0.000;0.000;2024-01-15T05:17:19;97951.56;;;17.67
76007;BMP280;64699;0.000;0.000;2024-01-15T05:19:44;97950.81;;;17.67
76007;BMP280;64699;0.000;0.000;2024-01-15T05:22:11;97957.91;;;17.70
76007;BMP280;64699;0.000;0.000;2024-01-15T05:24:36;97957.75;;;17.68
76007;BMP280;64699;0.000;0.000;2024-01-15T05:27:02;97948.22;;;17.69
76007;BMP280;64699;0.000;0.000;2024-01-15T05:29:27;97963.38;;;17.70
76007;BMP280;64699;0.000;0.000;2024-01-15T05:31:53;97957.31;;;17.71
76007;BMP280;64699;0.000;0.000;2024-01-15T05:34:18;97951.81;;;17.71
76007;BMP280;64699;0.000;0.000;2024-01-15T05:36:43;97954.44;;;17.69
76007;BMP280;64699;0.000;0.000;2024-01-15T05:39:08;97953.13;;;17.70
76007;BMP280;64699;0.000;0.000;2024-01-15T05:41:34;97944.16;;;17.70
76007;BMP280;64699;0.000;0.000;2024-01-15T05:43:59;97953.84;;;17.71
76007;BMP280;64699;0.000;0.000;2024-01-15T05:46:24;97952.69;;;17.74
76007;BMP280;64699;0.000;0.000;2024-01-15T05:48:49;97964.97;;;17.73
76007;BMP280;64699;0.000;0.000;2024-01-15T05:51:14;97951.81;;;17.71
76007;BMP280;64699;0.000;0.000;2024-01-15T05:53:40;97951.38;;;17.75
76007;BMP280;64699;0.000;0.000;2024-01-15T05:56:07;97951.25;;;17.73
76007;BMP280;64699;0.000;0.000;2024-01-15T05:58:32;97960.78;;;17.72
76007;BMP280;64699;0.000;0.000;2024-01-15T06:00:58;97955.31;;;17.72
76007;BMP280;64699;0.000;0.000;2024-01-15T06:03:23;97954.13;;;17.75
76007;BMP280;64699;0.000;0.000;2024-01-15T06:05:48;97948.50;;;17.73
76007;BMP280;64699;0.000;0.000;2024-01-15T06:08:13;97949.81;;;17.72
76007;BMP280;64699;0.000;0.000;2024-01-15T06:10:39;97947.06;;;17.72
76007;BMP280;64699;0.000;0.000;2024-01-15T06:13:04;97946.47;;;17.73
76007;BMP280;64699;0.000;0.000;2024-01-15T06:15:30;97945.63;;;17.71
76007;BMP280;64699;0.000;0.000;2024-01-15T06:17:55;97937.38;;;17.71
76007;BMP280;64699;0.000;0.000;2024-01-15T06:20:20;97939.38;;;17.70
76007;BMP280;64699;0.000;0.000;2024-01-15T06:22:46;97934.63;;;17.71
76007;BMP280;64699;0.000;0.000;2024-01-15T06:25:11;97934.63;;;17.71
76007;BMP280;64699;0.000;0.000;2024-01-15T06:27:36;97924.38;;;17.71
76007;BMP280;64699;0.000;0.000;2024-01-15T06:30:01;97926.25;;;17.69
76007;BMP280;64699;0.000;0.000;2024-01-15T06:32:27;97926.25;;;17.69
76007;BMP280;64699;0.000;0.000;2024-01-15T06:34:52;97922.22;;;17.70
76007;BMP280;64699;0.000;0.000;2024-01-15T06:37:17;97920.78;;;17.69
76007;BMP280;64699;0.000;0.000;2024-01-15T06:39:45;97917.44;;;17.70
76007;BMP280;64699;0.000;0.000;2024-01-15T06:42:10;97920.91;;;17.71
76007;BMP280;64699;0.000;0.000;2024-01-15T06:44:35;97917.88;;;17.67
76007;BMP280;64699;0.000;0.000;2024-01-15T06:47:00;97905.75;;;17.70
76007;BMP280;64699;0.000;0.000;2024-01-15T06:49:28;97918.16;;;17.71
76007;BMP280;64699;0.000;0.000;2024-01-15T06:51:53;97913.13;;;17.67
76007;BMP280;64699;0.000;0.000;2024-01-15T06:54:18;97920.78;;;17.69
76007;BMP280;64699;0.000;0.000;2024-01-15T06:56:43;97920.06;;;17.68
76007;BMP280;64699;0.000;0.000;2024-01-15T06:59:09;97927.69;;;17.70
76007;BMP280;64699;0.000;0.000;2024-01-15T07:01:34;97920.06;;;17.68
76007;BMP280;64699;0.000;0.000;2024-01-15T07:03:59;97913.84;;;17.68
76007;BMP280;64699;0.000;0.000;2024-01-15T07:06:24;97918.63;;;17.67
76007;BMP280;64699;0.000;0.000;2024-01-15T07:08:49;97915.28;;;17.69
76007;BMP280;64699;0.000;0.000;2024-01-15T07:11:15;97915.28;;;17.69
76007;BMP280;64699;0.000;0.000;2024-01-15T07:13:40;97915.88;;;17.67
76007;BMP280;64699;0.000;0.000;2024-01-15T07:16:05;97917.88;;;17.67
76007;BMP280;64699;0.000;0.000;2024-01-15T07:18:30;97922.06;;;17.68
76007;BMP280;64699;0.000;0.000;2024-01-15T07:20:55;97917.88;;;17.67
76007;BMP280;64699;0.000;0.000;2024-01-15T07:23:21;97915.88;;;17.67
76007;BMP280;64699;0.000;0.000;2024-01-15T07:25:46;97912.94;;;17.65
76007;BMP280;64699;0.000;0.000;2024-01-15T07:28:11;97912.94;;;17.65
76007;BMP280;64699;0.000;0.000;2024-01-15T07:30:36;97913.56;;;17.64
76007;BMP280;64699;0.000;0.000;2024-01-15T07:33:04;97907.47;;;17.65
76007;BMP280;64699;0.000;0.000;2024-01-15T07:35:29;97912.13;;;17.63
76007;BMP280;64699;0.000;0.000;2024-01-15T07:37:54;97912.13;;;17.63
76007;BMP280;64699;0.000;0.000;2024-01-15T07:40:19;97905.06;;;17.60
76007;BMP280;64699;0.000;0.000;2024-01-15T07:42:44;97902.31;;;17.60
76007;BMP280;64699;0.000;0.000;2024-01-15T07:45:10;97902.31;;;17.60
76007;BMP280;64699;0.000;0.000;2024-01-15T07:47:35;97906.47;;;17.61
76007;BMP280;64699;0.000;0.000;2024-01-15T07:50:01;97903.72;;;17.61
76007;BMP280;64699;0.000;0.000;2024-01-15T07:52:26;97903.03;;;17.60
76007;BMP280;64699;0.000;0.000;2024-01-15T07:54:51;97914.03;;;17.60
76007;BMP280;64699;0.000;0.000;2024-01-15T07:57:16;97908.38;;;17.58
76007;BMP280;64699;0.000;0.000;2024-01-15T07:59:41;97910.28;;;17.56
76007;BMP280;64699;0.000;0.000;2024-01-15T08:02:06;97917.19;;;17.57
76007;BMP280;64699;0.000;0.000;2024-01-15T08:04:32;97919.19;;;17.56
76007;BMP280;64699;0.000;0.000;2024-01-15T08:06:57;97906.22;;;17.57
76007;BMP280;64699;0.000;0.000;2024-01-15T08:09:22;97908.09;;;17.54
76007;BMP280;64699;0.000;0.000;2024-01-15T08:11:47;97911.59;;;17.55
76007;BMP280;64699;0.000;0.000;2024-01-15T08:14:14;97899.13;;;17.54
76007;BMP280;64699;0.000;0.000;2024-01-15T08:16:39;97886.28;;;17.47
76007;BMP280;64699;0.000;0.000;2024-01-15T08:19:05;97902.63;;;17.54
76007;BMP280;64699;0.000;0.000;2024-01-15T08:21:31;97900.59;;;17.55
76007;BMP280;64699;0.000;0.000;2024-01-15T08:23:59;97904.63;;;17.54
76007;BMP280;64699;0.000;0.000;2024-01-15T08:26:25;97913.03;;;17.56
76007;BMP280;64699;0.000;0.000;2024-01-15T08:28:50;97916.34;;;17.54
76007;BMP280;64699;0.000;0.000;2024-01-15T08:31:16;97923.69;;;17.52
76007;BMP280;64699;0.000;0.000;2024-01-15T08:33:41;97929.19;;;17.52
76007;BMP280;64699;0.000;0.000;2024-01-15T08:36:06;97923.69;;;17.52
76007;BMP280;64699;0.000;0.000;2024-01-15T08:38:31;97922.97;;;17.51
76007;BMP280;64699;0.000;0.000;2024-01-15T08:40:57;97930.50;;;17.51
76007;BMP280;64699;0.000;0.000;2024-01-15T08:43:24;97938.00;;;17.50
76007;BMP280;64699;0.000;0.000;2024-01-15T08:45:49;97931.66;;;17.48
76007;BMP280;64699;0.000;0.000;2024-01-15T08:48:14;97939.16;;;17.47
76007;BMP280;64699;0.000;0.000;2024-01-15T08:50:39;97933.09;;;17.49
76007;BMP280;64699;0.000;0.000;2024-01-15T08:53:04;97924.88;;;17.49
76007;BMP280;64699;0.000;0.000;2024-01-15T08:55:30;97918.78;;;17.50
76007;BMP280;64699;0.000;0.000;2024-01-15T08:57:55;97923.44;;;17.48
76007;BMP280;64699;0.000;0.000;2024-01-15T09:00:21;97928.91;;;17.48
76007;BMP280;64699;0.000;0.000;2024-01-15T09:02:46;97924.00;;;17.46
76007;BMP280;64699;0.000;0.000;2024-01-15T09:05:12;97923.28;;;17.46
76007;BMP280;64699;0.000;0.000;2024-01-15T09:07:37;97935.56;;;17.45
76007;BMP280;64699;0.000;0.000;2024-01-15T09:10:02;97931.22;;;17.42
76007;BMP280;64699;0.000;0.000;2024-01-15T09:12:27;97933.66;;;17.47
76007;BMP280;64699;0.000;0.000;2024-01-15T09:14:53;97945.38;;;17.48
76007;BMP280;64699;0.000;0.000;2024-01-15T09:17:19;97937.72;;;17.46
76007;BMP280;64699;0.000;0.000;2024-01-15T09:19:44;97944.09;;;17.49
76007;BMP280;64699;0.000;0.000;2024-01-15T09:22:09;97941.50;;;17.51
76007;BMP280;64699;0.000;0.000;2024-01-15T09:24:34;97943.63;;;17.52
76007;BMP280;64699;0.000;0.000;2024-01-15T09:27:00;97939.03;;;17.55
76007;BMP280;64699;0.000;0.000;2024-01-15T09:29:25;97941.31;;;17.58
76007;BMP280;64699;0.000;0.000;2024-01-15T09:31:50;97940.84;;;17.62
76007;BMP280;64699;0.000;0.000;2024-01-15T09:34:16;97937.66;;;17.65
76007;BMP280;64699;0.000;0.000;2024-01-15T09:36:41;97930.44;;;17.70
76007;BMP280;64699;0.000;0.000;2024-01-15T09:39:09;97934.63;;;17.71
76007;BMP280;64699;0.000;0.000;2024-01-15T09:41:36;97921.06;;;17.73
76007;BMP280;64699;0.000;0.000;2024-01-15T09:44:01;97925.34;;;17.76
76007;BMP280;64699;0.000;0.000;2024-01-15T09:46:27;97926.81;;;17.77
76007;BMP280;64699;0.000;0.000;2024-01-15T09:48:52;97922.75;;;17.78
76007;BMP280;64699;0.000;0.000;2024-01-15T09:51:17;97921.75;;;17.83
76007;BMP280;64699;0.000;0.000;2024-01-15T09:53:43;97912.06;;;17.82
76007;BMP280;64699;0.000;0.000;2024-01-15T09:56:08;97909.31;;;17.82
76007;BMP280;64699;0.000;0.000;2024-01-15T09:58:35;97906.72;;;17.84
76007;BMP280;64699;0.000;0.000;2024-01-15T10:01:00;97900.50;;;17.83
76007;BMP280;64699;0.000;0.000;2024-01-15T10:03:28;97900.63;;;17.85
76007;BMP280;64699;0.000;0.000;2024-01-15T10:05:53;97908.28;;;17.87
76007;BMP280;64699;0.000;0.000;2024-01-15T10:08:19;97907.56;;;17.86
76007;BMP280;64699;0.000;0.000;2024-01-15T10:10:45;97893.25;;;17.88
76007;BMP280;64699;0.000;0.000;2024-01-15T10:13:10;97905.53;;;17.87
76007;BMP280;64699;0.000;0.000;2024-01-15T10:15:37;97905.53;;;17.87
76007;BMP280;64699;0.000;0.000;2024-01-15T10:18:03;97906.25;;;17.87
76007;BMP280;64699;0.000;0.000;2024-01-15T10:20:28;97902.81;;;17.87
76007;BMP280;64699;0.000;0.000;2024-01-15T10:22:53;97904.25;;;17.88
76007;BMP280;64699;0.000;0.000;2024-01-15T10:25:20;97907.09;;;17.90
76007;BMP280;64699;0.000;0.000;2024-01-15T10:27:58;97907.09;;;17.90
76007;BMP280;64699;0.000;0.000;2024-01-15T10:30:24;97902.81;;;17.87
76007;BMP280;64699;0.000;0.000;2024-01-15T10:32:57;97897.31;;;17.87
76007;BMP280;64699;0.000;0.000;2024-01-15T10:35:22;97902.81;;;17.87
76007;BMP280;64699;0.000;0.000;2024-01-15T10:37:47;97905.53;;;17.87
76007;BMP280;64699;0.000;0.000;2024-01-15T10:40:13;97902.81;;;17.87
76007;BMP280;64699;0.000;0.000;2024-01-15T10:42:38;97904.09;;;17.86
76007;BMP280;64699;0.000;0.000;2024-01-15T10:45:04;97909.59;;;17.86
76007;BMP280;64699;0.000;0.000;2024-01-15T10:47:29;97906.13;;;17.85
76007;BMP280;64699;0.000;0.000;2024-01-15T10:49:54;97908.13;;;17.85
76007;BMP280;64699;0.000;0.000;2024-01-15T10:52:20;97904.09;;;17.86
76007;BMP280;64699;0.000;0.000;2024-01-15T10:54:46;97915.78;;;17.86
76007;BMP280;64699;0.000;0.000;2024-01-15T10:57:12;97919.38;;;17.89
76007;BMP280;64699;0.000;0.000;2024-01-15T10:59:38;97913.03;;;17.86
76007;BMP280;64699;0.000;0.000;2024-01-15T11:02:04;97909.00;;;17.87
76007;BMP280;64699;0.000;0.000;2024-01-15T11:04:29;97912.34;;;17.86
76007;BMP280;64699;0.000;0.000;2024-01-15T11:06:56;97910.44;;;17.88
76007;BMP280;64699;0.000;0.000;2024-01-15T11:09:25;97907.56;;;17.86
76007;BMP280;64699;0.000;0.000;2024-01-15T11:11:52;97906.13;;;17.85
76007;BMP280;64699;0.000;0.000;2024-01-15T11:14:39;97904.09;;;17.86
76007;BMP280;64699;0.000;0.000;2024-01-15T11:17:03;97910.16;;;17.84
76007;BMP280;64699;0.000;0.000;2024-01-15T11:19:36;97908.13;;;17.85
76007;BMP280;64699;0.000;0.000;2024-01-15T11:22:03;97911.59;;;17.85
76007;BMP280;64699;0.000;0.000;2024-01-15T11:24:34;97905.38;;;17.85
76007;BMP280;64699;0.000;0.000;2024-01-15T11:27:01;97895.72;;;17.84
76007;BMP280;64699;0.000;0.000;2024-01-15T11:34:19;97892.97;;;17.84
76007;BMP280;64699;0.000;0.000;2024-01-15T11:41:57;97873.75;;;17.84
76007;BMP280;64699;0.000;0.000;2024-01-15T11:44:23;97870.72;;;17.80
76007;BMP280;64699;0.000;0.000;2024-01-15T11:52:15;97861.91;;;17.81
76007;BMP280;64699;0.000;0.000;2024-01-15T11:54:41;97869.31;;;17.79
76007;BMP280;64699;0.000;0.000;2024-01-15T11:57:14;97871.91;;;17.77
76007;BMP280;64699;0.000;0.000;2024-01-15T11:59:43;97871.44;;;17.80
76007;BMP280;64699;0.000;0.000;2024-01-15T12:02:09;97865.25;;;17.80
76007;BMP280;64699;0.000;0.000;2024-01-15T12:04:36;97870.00;;;17.79
76007;BMP280;64699;0.000;0.000;2024-01-15T12:07:01;97881.72;;;17.80
76007;BMP280;64699;0.000;0.000;2024-01-15T12:09:27;97869.31;;;17.79
76007;BMP280;64699;0.000;0.000;2024-01-15T12:11:55;97866.41;;;17.77
76007;BMP280;64699;0.000;0.000;2024-01-15T12:14:24;97867.13;;;17.77
76007;BMP280;64699;0.000;0.000;2024-01-15T12:16:49;97866.41;;;17.77
76007;BMP280;64699;0.000;0.000;2024-01-15T12:19:15;97871.91;;;17.77
76007;BMP280;64699;0.000;0.000;2024-01-15T12:21:40;97872.34;;;17.73
76007;BMP280;64699;0.000;0.000;2024-01-15T12:24:07;97873.19;;;17.76
76007;BMP280;64699;0.000;0.000;2024-01-15T12:26:32;97876.69;;;17.76
76007;BMP280;64699;0.000;0.000;2024-01-15T12:28:57;97873.19;;;17.76
76007;BMP280;64699;0.000;0.000;2024-01-15T12:31:22;97873.19;;;17.76
76007;BMP280;64699;0.000;0.000;2024-01-15T12:33:48;97875.09;;;17.73
76007;BMP280;64699;0.000;0.000;2024-01-15T12:36:13;97872.94;;;17.72
76007;BMP280;64699;0.000;0.000;2024-01-15T12:38:38;97875.81;;;17.74
76007;BMP280;64699;0.000;0.000;2024-01-15T12:41:03;97870.91;;;17.72
76007;BMP280;64699;0.000;0.000;2024-01-15T12:43:28;97863.97;;;17.71
76007;BMP280;64699;0.000;0.000;2024-01-15T12:45:54;97869.47;;;17.71
76007;BMP280;64699;0.000;0.000;2024-01-15T12:48:19;97875.69;;;17.72
76007;BMP280;64699;0.000;0.000;2024-01-15T12:50:44;97873.09;;;17.74
76007;BMP280;64699;0.000;0.000;2024-01-15T12:53:10;97871.63;;;17.73
76007;BMP280;64699;0.000;0.000;2024-01-15T12:55:35;97866.16;;;17.73
76007;BMP280;64699;0.000;0.000;2024-01-15T12:58:01;97871.50;;;17.71
76007;BMP280;64699;0.000;0.000;2024-01-15T13:00:26;97862.53;;;17.70
76007;BMP280;64699;0.000;0.000;2024-01-15T13:02:51;97871.94;;;17.67
76007;BMP280;64699;0.000;0.000;2024-01-15T13:05:17;97878.28;;;17.70
76007;BMP280;64699;0.000;0.000;2024-01-15T13:07:43;97881.19;;;17.72
76007;BMP280;64699;0.000;0.000;2024-01-15T13:10:08;97886.53;;;17.70
76007;BMP280;64699;0.000;0.000;2024-01-15T13:12:34;97869.91;;;17.68
76007;BMP280;64699;0.000;0.000;2024-01-15T13:14:59;97865.72;;;17.67
76007;BMP280;64699;0.000;0.000;2024-01-15T13:17:25;97876.59;;;17.65
76007;BMP280;64699;0.000;0.000;2024-01-15T13:19:50;97878.47;;;17.62
76007;BMP280;64699;0.000;0.000;2024-01-15T13:22:15;97871.09;;;17.65
76007;BMP280;64699;0.000;0.000;2024-01-15T13:24:40;97880.63;;;17.64
76007;BMP280;64699;0.000;0.000;2024-01-15T13:27:06;97878.00;;;17.66
76007;BMP280;64699;0.000;0.000;2024-01-15T13:29:31;97873.69;;;17.63
76007;BMP280;64699;0.000;0.000;2024-01-15T13:31:57;97884.81;;;17.65
76007;BMP280;64699;0.000;0.000;2024-01-15T13:34:22;97887.56;;;17.65
76007;BMP280;64699;0.000;0.000;2024-01-15T13:36:48;97887.56;;;17.65
76007;BMP280;64699;0.000;0.000;2024-01-15T13:39:14;97881.34;;;17.64
76007;BMP280;64699;0.000;0.000;2024-01-15T13:41:43;97884.41;;;17.59
76007;BMP280;64699;0.000;0.000;2024-01-15T13:44:09;97874.88;;;17.60
76007;BMP280;64699;0.000;0.000;2024-01-15T13:46:35;97871.41;;;17.59
76007;BMP280;64699;0.000;0.000;2024-01-15T13:49:00;97876.28;;;17.61
76007;BMP280;64699;0.000;0.000;2024-01-15T13:51:27;97867.94;;;17.59
76007;BMP280;64699;0.000;0.000;2024-01-15T13:53:52;97883.09;;;17.60
76007;BMP280;64699;0.000;0.000;2024-01-15T13:56:18;97871.97;;;17.58
76007;BMP280;64699;0.000;0.000;2024-01-15T13:58:43;97885.69;;;17.58
76007;BMP280;64699;0.000;0.000;2024-01-15T14:01:09;97878.91;;;17.59
76007;BMP280;64699;0.000;0.000;2024-01-15T14:03:34;97880.91;;;17.58
76007;BMP280;64699;0.000;0.000;2024-01-15T14:06:00;97892.50;;;17.57
76007;BMP280;64699;0.000;0.000;2024-01-15T14:08:25;97887.00;;;17.57
76007;BMP280;64699;0.000;0.000;2024-01-15T14:10:50;97882.22;;;17.57
76007;BMP280;64699;0.000;0.000;2024-01-15T14:13:15;97902.06;;;17.56
76007;BMP280;64699;0.000;0.000;2024-01-15T14:15:41;97901.88;;;17.54
76007;BMP280;64699;0.000;0.000;2024-01-15T14:18:06;97894.94;;;17.53
76007;BMP280;64699;0.000;0.000;2024-01-15T14:20:32;97899.72;;;17.52
76007;BMP280;64699;0.000;0.000;2024-01-15T14:22:58;97910.13;;;17.54
76007;BMP280;64699;0.000;0.000;2024-01-15T14:25:23;97897.69;;;17.53
76007;BMP280;64699;0.000;0.000;2024-01-15T14:27:49;97897.69;;;17.53